Time;durP1;ratioP1;P1;durP2;ratioP2;P2;SDS_P1;SDS_P2;PMS_P1;PMS_P2;Temp;Humidity;BMP_temperature;BMP_pressure;BME280_temperature;BME280_humidity;BME280_pressure;Samples;Min_cycle;Max_cycle;Signal;HPM_P1;HPM_P2
2023/07/23 00:01:01;;;;;;;;;;;14.50;99.90;;;;;;5089072;28;19928;-83
2023/07/23 00:03:27;;;;;;;;;;;14.50;99.90;;;;;;5091082;28;19981;-83
2023/07/23 00:05:52;;;;;;;;;;;14.50;99.90;;;;;;5073138;28;19924;-81
2023/07/23 00:08:18;;;;;;;;;;;14.50;99.90;;;;;;5089811;28;19931;-84
2023/07/23 00:10:43;;;;;;;;;;;14.60;99.90;;;;;;5069804;28;20335;-81
2023/07/23 00:13:09;;;;;;;;;;;14.50;99.90;;;;;;5073017;28;19928;-84
2023/07/23 00:15:34;;;;;;;;;;;14.50;99.90;;;;;;5090508;28;19928;-83
2023/07/23 00:18:00;;;;;;;;;;;14.50;99.90;;;;;;5090928;28;19924;-83
2023/07/23 00:20:26;;;;;;;;;;;14.60;99.90;;;;;;5070875;28;19994;-83
2023/07/23 00:22:51;;;;;;;;;;;14.60;99.90;;;;;;5089668;28;19935;-85
2023/07/23 00:25:17;;;;;;;;;;;14.60;99.90;;;;;;5091173;28;20378;-83
2023/07/23 00:27:42;;;;;;;;;;;14.60;99.90;;;;;;5090652;28;20140;-85
2023/07/23 00:30:08;;;;;;;;;;;14.60;99.90;;;;;;5070157;28;19931;-85
2023/07/23 00:32:34;;;;;;;;;;;14.60;99.90;;;;;;5083028;28;19924;-82
2023/07/23 00:35:00;;;;;;;;;;;14.60;99.90;;;;;;5071977;28;19924;-83
2023/07/23 00:37:27;;;;;;;;;;;14.60;99.90;;;;;;5069890;28;20375;-83
2023/07/23 00:39:53;;;;;;;;;;;14.60;99.90;;;;;;5086360;28;19925;-83
2023/07/23 00:42:19;;;;;;;;;;;14.60;99.90;;;;;;5081120;28;19951;-84
2023/07/23 00:44:44;;;;;;;;;;;14.60;99.90;;;;;;5090554;28;19928;-83
2023/07/23 00:47:10;;;;;;;;;;;14.60;99.90;;;;;;5072790;28;19982;-83
2023/07/23 00:49:35;;;;;;;;;;;14.60;99.90;;;;;;5072320;28;19928;-83
2023/07/23 00:52:01;;;;;;;;;;;14.60;99.90;;;;;;5087239;28;19936;-82
2023/07/23 00:54:26;;;;;;;;;;;14.60;99.90;;;;;;5070495;28;19928;-83
2023/07/23 00:56:52;;;;;;;;;;;14.50;99.90;;;;;;5074842;28;19935;-84
2023/07/23 00:59:18;;;;;;;;;;;14.60;99.90;;;;;;5092947;28;20397;-83
2023/07/23 01:01:44;;;;;;;;;;;14.50;99.90;;;;;;5091053;28;19923;-83
2023/07/23 01:04:09;;;;;;;;;;;14.50;99.90;;;;;;5093572;28;19925;-83
2023/07/23 01:06:36;;;;;;;;;;;14.50;99.90;;;;;;5093671;28;19950;-83
2023/07/23 01:09:03;;;;;;;;;;;14.50;99.90;;;;;;5096362;28;19967;-84
2023/07/23 01:11:30;;;;;;;;;;;14.50;99.90;;;;;;5094914;28;19943;-84
2023/07/23 01:13:56;;;;;;;;;;;14.50;99.90;;;;;;5073257;28;20340;-83
2023/07/23 01:16:23;;;;;;;;;;;14.50;99.90;;;;;;5092425;28;19932;-83
2023/07/23 01:18:49;;;;;;;;;;;14.50;99.90;;;;;;5074970;28;20010;-84
2023/07/23 01:21:16;;;;;;;;;;;14.50;99.90;;;;;;5074482;28;19935;-82
2023/07/23 01:23:42;;;;;;;;;;;14.50;99.90;;;;;;5089746;28;19928;-85
2023/07/23 01:26:08;;;;;;;;;;;14.40;99.90;;;;;;5074753;28;19928;-83
2023/07/23 01:28:33;;;;;;;;;;;14.50;99.90;;;;;;5091354;28;19931;-85
2023/07/23 01:30:59;;;;;;;;;;;14.40;99.90;;;;;;5092412;28;20302;-83
2023/07/23 01:33:25;;;;;;;;;;;14.40;99.90;;;;;;5067751;28;19939;-85
2023/07/23 01:35:53;;;;;;;;;;;14.40;99.90;;;;;;5069698;28;19934;-84
2023/07/23 01:38:19;;;;;;;;;;;14.40;99.90;;;;;;5073204;28;19967;-84
2023/07/23 01:40:45;;;;;;;;;;;14.40;99.90;;;;;;5071452;28;19981;-85
2023/07/23 01:43:11;;;;;;;;;;;14.50;99.90;;;;;;5071800;28;19928;-85
2023/07/23 01:45:37;;;;;;;;;;;14.50;99.90;;;;;;5069355;28;20375;-84
2023/07/23 01:48:02;;;;;;;;;;;14.50;99.90;;;;;;5072350;28;19925;-84
2023/07/23 01:50:28;;;;;;;;;;;14.50;99.90;;;;;;5070376;28;20398;-84
2023/07/23 01:52:53;;;;;;;;;;;14.50;99.90;;;;;;5070029;28;19929;-85
2023/07/23 01:55:19;;;;;;;;;;;14.50;99.90;;;;;;5067803;28;20039;-84
2023/07/23 01:57:44;;;;;;;;;;;14.50;99.90;;;;;;5071495;28;20336;-85
2023/07/23 02:00:10;;;;;;;;;;;14.50;99.90;;;;;;5069726;28;19924;-85
2023/07/23 02:02:36;;;;;;;;;;;14.50;99.90;;;;;;5072861;28;19929;-85
2023/07/23 02:05:03;;;;;;;;;;;14.50;99.90;;;;;;5061656;28;19939;-84
2023/07/23 02:07:28;;;;;;;;;;;14.50;99.90;;;;;;5066218;28;19933;-84
2023/07/23 02:09:54;;;;;;;;;;;14.50;99.90;;;;;;5070814;28;19924;-83
2023/07/23 02:12:19;;;;;;;;;;;14.50;99.90;;;;;;5070838;28;20011;-84
2023/07/23 02:14:45;;;;;;;;;;;14.50;99.90;;;;;;5065104;28;19928;-86
2023/07/23 02:17:11;;;;;;;;;;;14.50;99.90;;;;;;5062554;28;19950;-85
2023/07/23 02:19:39;;;;;;;;;;;14.50;99.90;;;;;;5064133;28;19932;-85
2023/07/23 02:22:05;;;;;;;;;;;14.50;99.90;;;;;;5061679;28;20015;-84
2023/07/23 02:24:31;;;;;;;;;;;14.50;99.90;;;;;;5065227;28;20054;-85
2023/07/23 02:26:56;;;;;;;;;;;14.50;99.90;;;;;;5061021;28;19931;-83
2023/07/23 02:29:22;;;;;;;;;;;14.50;99.90;;;;;;5062946;28;19925;-84
2023/07/23 02:31:48;;;;;;;;;;;14.50;99.90;;;;;;5066123;28;20492;-85
2023/07/23 02:34:14;;;;;;;;;;;14.60;99.90;;;;;;5042862;28;19925;-85
2023/07/23 02:36:39;;;;;;;;;;;14.50;99.90;;;;;;5043292;28;19963;-85
2023/07/23 02:39:05;;;;;;;;;;;14.50;99.90;;;;;;5045476;28;19935;-84
2023/07/23 02:41:31;;;;;;;;;;;14.50;99.90;;;;;;5043627;28;19936;-85
2023/07/23 02:43:57;;;;;;;;;;;14.50;99.90;;;;;;5028022;28;20037;-86
2023/07/23 02:46:23;;;;;;;;;;;14.50;99.90;;;;;;5044470;28;19925;-84
2023/07/23 02:48:48;;;;;;;;;;;14.50;99.90;;;;;;5046371;28;19932;-84
2023/07/23 02:51:14;;;;;;;;;;;14.50;99.90;;;;;;5047637;28;19925;-84
2023/07/23 02:53:39;;;;;;;;;;;14.50;99.90;;;;;;5045756;28;19987;-84
2023/07/23 02:56:05;;;;;;;;;;;14.50;99.90;;;;;;5043047;28;19933;-85
2023/07/23 02:58:31;;;;;;;;;;;14.50;99.90;;;;;;5043672;28;20020;-85
2023/07/23 03:00:56;;;;;;;;;;;14.50;99.90;;;;;;5044116;28;19929;-84
2023/07/23 03:03:23;;;;;;;;;;;14.50;99.90;;;;;;5045313;28;19933;-84
2023/07/23 03:05:48;;;;;;;;;;;14.50;99.90;;;;;;5042600;28;19981;-84
2023/07/23 03:08:14;;;;;;;;;;;14.50;99.90;;;;;;5044070;28;19937;-84
2023/07/23 03:10:40;;;;;;;;;;;14.50;99.90;;;;;;5042614;28;19933;-85
2023/07/23 03:13:06;;;;;;;;;;;14.50;99.90;;;;;;5041601;28;20713;-84
2023/07/23 03:15:31;;;;;;;;;;;14.50;99.90;;;;;;5045051;28;19928;-84
2023/07/23 03:17:57;;;;;;;;;;;14.50;99.90;;;;;;5042497;28;19929;-86
2023/07/23 03:20:23;;;;;;;;;;;14.50;99.90;;;;;;5043413;28;20015;-84
2023/07/23 03:22:48;;;;;;;;;;;14.50;99.90;;;;;;5043141;28;20675;-85
2023/07/23 03:25:14;;;;;;;;;;;14.50;99.90;;;;;;5044480;28;19924;-84
2023/07/23 03:27:39;;;;;;;;;;;14.40;99.90;;;;;;5023411;28;19971;-85
2023/07/23 03:30:06;;;;;;;;;;;14.40;99.90;;;;;;5043512;28;20016;-84
2023/07/23 03:32:31;;;;;;;;;;;14.50;99.90;;;;;;5045381;28;19975;-84
2023/07/23 03:34:57;;;;;;;;;;;14.50;99.90;;;;;;5059434;28;19967;-85
2023/07/23 03:37:22;;;;;;;;;;;14.50;99.90;;;;;;5063879;28;19933;-85
2023/07/23 03:39:48;;;;;;;;;;;14.50;99.90;;;;;;5063338;28;20450;-84
2023/07/23 03:42:13;;;;;;;;;;;14.40;99.90;;;;;;5029929;28;19986;-84
2023/07/23 03:44:39;;;;;;;;;;;14.40;99.90;;;;;;5064451;28;19932;-84
2023/07/23 03:47:17;;;;;;;;;;;14.40;99.90;;;;;;5062106;28;19928;-85
2023/07/23 03:49:43;;;;;;;;;;;14.40;99.90;;;;;;5064307;28;19924;-85
2023/07/23 03:52:09;;;;;;;;;;;14.40;99.90;;;;;;5061785;28;21894;-84
2023/07/23 03:54:35;;;;;;;;;;;14.50;99.90;;;;;;5062527;28;19939;-84
2023/07/23 03:57:01;;;;;;;;;;;14.50;99.90;;;;;;5064003;28;20367;-85
2023/07/23 03:59:28;;;;;;;;;;;14.50;99.90;;;;;;5063119;28;20754;-84
2023/07/23 04:01:54;;;;;;;;;;;14.50;99.90;;;;;;5060551;28;19929;-85
2023/07/23 04:04:19;;;;;;;;;;;14.50;99.90;;;;;;5065370;28;19939;-86
2023/07/23 04:06:45;;;;;;;;;;;14.50;99.90;;;;;;5062477;28;19928;-85
2023/07/23 04:09:12;;;;;;;;;;;14.50;99.90;;;;;;5062037;28;19931;-85
2023/07/23 04:11:38;;;;;;;;;;;14.50;99.90;;;;;;5062664;28;20085;-84
2023/07/23 04:14:03;;;;;;;;;;;14.50;99.90;;;;;;5062310;28;19972;-84
2023/07/23 04:16:29;;;;;;;;;;;14.50;99.90;;;;;;5060246;28;20054;-86
2023/07/23 04:18:55;;;;;;;;;;;14.50;99.90;;;;;;5057834;28;19933;-85
2023/07/23 04:21:23;;;;;;;;;;;14.50;99.90;;;;;;5055289;28;20367;-84
2023/07/23 04:23:50;;;;;;;;;;;14.50;99.90;;;;;;5069306;28;19978;-84
2023/07/23 04:26:15;;;;;;;;;;;14.50;99.90;;;;;;5068022;28;19924;-84
2023/07/23 04:28:41;;;;;;;;;;;14.50;99.90;;;;;;5067984;28;19935;-84
2023/07/23 04:31:06;;;;;;;;;;;14.50;99.90;;;;;;5072498;28;20434;-85
2023/07/23 04:33:32;;;;;;;;;;;14.50;99.90;;;;;;5076931;28;19931;-85
2023/07/23 04:35:57;;;;;;;;;;;14.50;99.90;;;;;;5075545;28;19940;-84
2023/07/23 04:38:23;;;;;;;;;;;14.50;99.90;;;;;;5074823;28;19924;-84
2023/07/23 04:40:49;;;;;;;;;;;14.50;99.90;;;;;;5073089;28;20002;-85
2023/07/23 04:43:15;;;;;;;;;;;14.50;99.90;;;;;;5091893;28;19924;-85
2023/07/23 04:45:41;;;;;;;;;;;14.50;99.90;;;;;;5075058;28;19997;-85
2023/07/23 04:48:07;;;;;;;;;;;14.50;99.90;;;;;;5092923;28;19974;-84
2023/07/23 04:50:32;;;;;;;;;;;14.50;99.90;;;;;;5091887;28;19924;-84
2023/07/23 04:52:58;;;;;;;;;;;14.50;99.90;;;;;;5090299;28;20298;-86
2023/07/23 04:55:24;;;;;;;;;;;14.50;99.90;;;;;;5088639;28;19928;-85
2023/07/23 04:57:50;;;;;;;;;;;14.60;99.90;;;;;;5068003;28;19935;-85
2023/07/23 05:00:16;;;;;;;;;;;14.60;99.90;;;;;;5085054;28;19932;-85
2023/07/23 05:02:42;;;;;;;;;;;14.60;99.90;;;;;;5088454;28;19935;-84
2023/07/23 05:05:08;;;;;;;;;;;14.60;99.90;;;;;;5088018;28;19928;-84
2023/07/23 05:07:33;;;;;;;;;;;14.60;99.90;;;;;;5086383;28;19981;-85
2023/07/23 05:09:59;;;;;;;;;;;14.60;99.90;;;;;;5065555;28;19947;-84
2023/07/23 05:12:25;;;;;;;;;;;14.60;99.90;;;;;;5085589;28;19935;-86
2023/07/23 05:14:50;;;;;;;;;;;14.60;99.90;;;;;;5049520;28;19931;-84
2023/07/23 05:17:16;;;;;;;;;;;14.60;99.90;;;;;;5067945;28;20059;-85
2023/07/23 05:19:41;;;;;;;;;;;14.70;99.90;;;;;;5089870;28;19932;-85
2023/07/23 05:22:07;;;;;;;;;;;14.70;99.90;;;;;;5088766;28;20022;-84
2023/07/23 05:24:32;;;;;;;;;;;14.70;99.90;;;;;;5072864;28;19935;-84
2023/07/23 05:26:58;;;;;;;;;;;14.80;99.90;;;;;;5093047;28;19924;-84
2023/07/23 05:29:24;;;;;;;;;;;14.80;99.90;;;;;;5092003;28;19928;-85
2023/07/23 05:31:50;;;;;;;;;;;14.80;99.90;;;;;;5092760;28;19924;-85
2023/07/23 05:34:16;;;;;;;;;;;14.90;99.90;;;;;;5075439;28;19939;-85
2023/07/23 05:36:42;;;;;;;;;;;14.80;99.90;;;;;;5074678;28;19932;-83
2023/07/23 05:39:09;;;;;;;;;;;15.00;99.90;;;;;;5091908;28;19935;-84
2023/07/23 05:41:34;;;;;;;;;;;15.00;99.90;;;;;;5090345;28;19924;-85
2023/07/23 05:44:00;;;;;;;;;;;15.00;99.90;;;;;;5055257;28;20374;-84
2023/07/23 05:46:26;;;;;;;;;;;15.10;99.90;;;;;;5092106;28;19962;-84
2023/07/23 05:48:51;;;;;;;;;;;15.10;99.90;;;;;;5091618;28;20353;-85
2023/07/23 05:51:17;;;;;;;;;;;15.20;99.90;;;;;;5091427;28;19924;-85
2023/07/23 05:53:42;;;;;;;;;;;15.30;99.90;;;;;;5072606;28;19924;-84
2023/07/23 05:56:08;;;;;;;;;;;15.30;99.90;;;;;;5092269;28;19975;-85
2023/07/23 05:58:34;;;;;;;;;;;15.40;99.90;;;;;;5085499;28;19929;-84
2023/07/23 06:00:59;;;;;;;;;;;15.50;99.90;;;;;;5069327;28;19974;-84
2023/07/23 06:03:25;;;;;;;;;;;15.50;99.90;;;;;;5085666;28;19928;-85
2023/07/23 06:05:50;;;;;;;;;;;15.50;99.90;;;;;;5087115;28;19931;-85
2023/07/23 06:08:16;;;;;;;;;;;15.60;99.90;;;;;;5084376;28;20020;-83
2023/07/23 06:10:41;;;;;;;;;;;15.60;99.90;;;;;;5085165;28;19932;-84
2023/07/23 06:13:07;;;;;;;;;;;15.60;99.90;;;;;;5085198;28;19928;-85
2023/07/23 06:15:32;;;;;;;;;;;15.70;99.90;;;;;;5084424;28;19924;-83
2023/07/23 06:17:58;;;;;;;;;;;15.70;99.90;;;;;;5080527;28;20015;-83
2023/07/23 06:20:24;;;;;;;;;;;15.80;99.90;;;;;;5066309;28;20387;-83
2023/07/23 06:22:50;;;;;;;;;;;15.90;99.90;;;;;;5089680;28;19935;-84
2023/07/23 06:25:15;;;;;;;;;;;15.90;99.90;;;;;;5089110;28;19928;-83
2023/07/23 06:27:41;;;;;;;;;;;15.90;99.90;;;;;;5070267;28;19936;-84
2023/07/23 06:30:07;;;;;;;;;;;16.00;99.90;;;;;;5088342;28;19957;-83
2023/07/23 06:32:32;;;;;;;;;;;16.10;99.90;;;;;;5078519;28;19924;-82
2023/07/23 06:34:58;;;;;;;;;;;16.10;99.90;;;;;;5072368;28;19932;-85
2023/07/23 06:37:24;;;;;;;;;;;16.10;99.90;;;;;;5089733;28;19950;-83
2023/07/23 06:39:49;;;;;;;;;;;16.20;99.90;;;;;;5089881;28;20047;-84
2023/07/23 06:42:15;;;;;;;;;;;16.20;99.90;;;;;;5090212;28;20495;-85
2023/07/23 06:44:41;;;;;;;;;;;16.20;99.90;;;;;;5088794;28;19935;-86
2023/07/23 06:47:07;;;;;;;;;;;16.20;99.90;;;;;;5088601;28;19978;-86
2023/07/23 06:49:33;;;;;;;;;;;16.20;99.90;;;;;;5068973;28;19936;-85
2023/07/23 06:51:58;;;;;;;;;;;16.20;99.90;;;;;;5067896;28;19923;-84
2023/07/23 06:54:24;;;;;;;;;;;16.20;99.90;;;;;;5069374;28;19928;-85
2023/07/23 06:56:50;;;;;;;;;;;16.20;99.90;;;;;;5088833;28;19928;-85
2023/07/23 06:59:16;;;;;;;;;;;16.20;99.90;;;;;;5070996;28;20062;-84
2023/07/23 07:01:41;;;;;;;;;;;16.20;99.90;;;;;;5088772;28;20019;-86
2023/07/23 07:04:07;;;;;;;;;;;16.20;99.90;;;;;;5090840;28;19924;-84
2023/07/23 07:06:33;;;;;;;;;;;16.20;99.90;;;;;;5085256;28;20702;-84
2023/07/23 07:08:58;;;;;;;;;;;16.10;99.90;;;;;;5088141;28;19971;-84
2023/07/23 07:11:24;;;;;;;;;;;16.20;99.90;;;;;;5059906;28;19925;-85
2023/07/23 07:13:49;;;;;;;;;;;16.20;99.90;;;;;;5083304;28;20175;-85
2023/07/23 07:16:16;;;;;;;;;;;16.10;99.90;;;;;;5077908;28;20055;-85
2023/07/23 07:18:42;;;;;;;;;;;16.10;99.90;;;;;;5083289;28;20390;-85
2023/07/23 07:21:07;;;;;;;;;;;16.10;99.90;;;;;;5084220;28;19930;-84
2023/07/23 07:23:34;;;;;;;;;;;16.10;99.90;;;;;;5089192;28;19928;-86
2023/07/23 07:26:00;;;;;;;;;;;16.10;99.90;;;;;;5071826;28;19925;-85
2023/07/23 07:28:27;;;;;;;;;;;16.10;99.90;;;;;;5070232;28;19932;-85
2023/07/23 07:30:57;;;;;;;;;;;16.10;99.90;;;;;;5069232;28;20378;-84
2023/07/23 07:33:22;;;;;;;;;;;16.10;99.90;;;;;;5083243;28;19939;-83
2023/07/23 07:35:49;;;;;;;;;;;16.10;99.90;;;;;;5084273;28;19928;-87
2023/07/23 07:38:17;;;;;;;;;;;16.10;99.90;;;;;;5049216;28;20535;-84
2023/07/23 07:40:43;;;;;;;;;;;16.10;99.90;;;;;;5082625;28;20013;-84
2023/07/23 07:43:09;;;;;;;;;;;16.10;99.90;;;;;;5065051;28;19928;-82
2023/07/23 07:45:34;;;;;;;;;;;16.00;99.90;;;;;;5082270;28;19935;-82
2023/07/23 07:48:00;;;;;;;;;;;16.00;99.90;;;;;;5083507;28;20006;-82
2023/07/23 07:50:25;;;;;;;;;;;16.00;99.90;;;;;;5061431;28;19964;-83
2023/07/23 07:52:51;;;;;;;;;;;15.90;99.90;;;;;;5082682;28;19939;-83
2023/07/23 07:55:16;;;;;;;;;;;15.90;99.90;;;;;;5069973;28;19928;-82
2023/07/23 07:57:42;;;;;;;;;;;15.80;99.90;;;;;;5083161;28;20464;-85
2023/07/23 08:00:08;;;;;;;;;;;15.80;99.90;;;;;;5054536;28;20290;-82
2023/07/23 08:02:34;;;;;;;;;;;15.80;99.90;;;;;;5089377;28;20027;-83
2023/07/23 08:04:59;;;;;;;;;;;15.80;99.90;;;;;;5087116;28;19980;-82
2023/07/23 08:07:25;;;;;;;;;;;15.80;99.90;;;;;;5091372;28;19935;-86
2023/07/23 08:09:53;;;;;;;;;;;15.90;99.90;;;;;;5073650;28;20392;-86
2023/07/23 08:12:18;;;;;;;;;;;15.90;99.90;;;;;;5077688;28;20397;-86
2023/07/23 08:14:44;;;;;;;;;;;15.90;99.90;;;;;;5076817;28;19924;-85
2023/07/23 08:17:12;;;;;;;;;;;16.00;99.90;;;;;;5060159;28;20204;-86
2023/07/23 08:19:38;;;;;;;;;;;16.00;99.90;;;;;;5071318;28;19932;-86
2023/07/23 08:22:04;;;;;;;;;;;16.10;99.90;;;;;;5073474;28;19924;-85
2023/07/23 08:24:29;;;;;;;;;;;16.20;99.90;;;;;;5078286;28;20389;-86
2023/07/23 08:26:57;;;;;;;;;;;16.20;99.90;;;;;;5073498;28;19924;-85
2023/07/23 08:29:24;;;;;;;;;;;16.30;99.90;;;;;;5063509;28;19974;-87
2023/07/23 08:31:50;;;;;;;;;;;16.30;99.90;;;;;;5082033;28;19932;-86
2023/07/23 08:34:16;;;;;;;;;;;16.30;99.90;;;;;;5096153;28;19932;-85
2023/07/23 08:36:43;;;;;;;;;;;16.30;99.90;;;;;;5096221;28;19932;-87
2023/07/23 08:39:08;;;;;;;;;;;16.30;99.90;;;;;;5094862;28;19924;-84
2023/07/23 08:41:46;;;;;;;;;;;16.30;99.90;;;;;;5078155;28;20021;-85
2023/07/23 08:44:30;;;;;;;;;;;16.20;99.90;;;;;;5079329;28;19944;-87
2023/07/23 08:47:14;;;;;;;;;;;16.20;99.90;;;;;;5097225;28;20378;-86
2023/07/23 08:49:40;;;;;;;;;;;16.10;99.90;;;;;;5078704;28;19969;-85
2023/07/23 08:52:08;;;;;;;;;;;16.10;99.90;;;;;;5092370;28;20321;-85
2023/07/23 08:54:34;;;;;;;;;;;16.10;99.90;;;;;;5056900;28;19935;-86
2023/07/23 08:57:00;;;;;;;;;;;16.00;99.90;;;;;;5068068;28;19924;-87
2023/07/23 08:59:26;;;;;;;;;;;16.00;99.90;;;;;;5077516;28;20007;-87
2023/07/23 09:01:53;;;;;;;;;;;16.00;99.90;;;;;;5096345;28;19972;-86
2023/07/23 09:04:18;;;;;;;;;;;16.10;99.90;;;;;;5076880;28;19957;-86
2023/07/23 09:06:44;;;;;;;;;;;16.10;99.90;;;;;;5077966;28;19928;-87
2023/07/23 09:09:11;;;;;;;;;;;16.10;99.90;;;;;;5094400;28;20398;-86
2023/07/23 09:11:36;;;;;;;;;;;16.10;99.90;;;;;;5070641;28;19924;-86
2023/07/23 09:14:03;;;;;;;;;;;16.20;99.90;;;;;;5064200;28;20395;-86
2023/07/23 09:16:28;;;;;;;;;;;16.20;99.90;;;;;;5071731;28;19954;-85
2023/07/23 09:18:54;;;;;;;;;;;16.20;99.90;;;;;;5074464;28;20386;-85
2023/07/23 09:21:23;;;;;;;;;;;16.20;99.90;;;;;;5070703;28;19935;-86
2023/07/23 09:23:58;;;;;;;;;;;16.20;99.90;;;;;;5091655;28;20378;-85
2023/07/23 09:26:27;;;;;;;;;;;16.10;99.90;;;;;;5074047;28;19934;-86
2023/07/23 09:28:55;;;;;;;;;;;16.10;99.90;;;;;;5077988;28;19924;-86
2023/07/23 09:31:22;;;;;;;;;;;16.10;99.90;;;;;;5090709;28;19932;-84
2023/07/23 09:33:47;;;;;;;;;;;16.20;99.90;;;;;;5072014;28;19970;-84
2023/07/23 09:36:13;;;;;;;;;;;16.20;99.90;;;;;;5069382;28;19972;-86
2023/07/23 09:38:45;;;;;;;;;;;16.20;99.90;;;;;;5051310;28;19935;-85
2023/07/23 09:41:11;;;;;;;;;;;16.30;99.90;;;;;;5084397;28;19975;-85
2023/07/23 09:43:37;;;;;;;;;;;16.30;99.90;;;;;;5066725;28;20692;-87
2023/07/23 09:46:03;;;;;;;;;;;16.30;99.90;;;;;;5065951;28;20035;-86
2023/07/23 09:48:28;;;;;;;;;;;16.40;99.90;;;;;;5066688;28;19989;-87
2023/07/23 09:50:57;;;;;;;;;;;16.30;99.90;;;;;;5085710;28;19928;-85
2023/07/23 09:53:23;;;;;;;;;;;16.40;99.90;;;;;;5067887;28;19978;-85
2023/07/23 09:55:49;;;;;;;;;;;16.40;99.90;;;;;;5068598;28;20333;-86
2023/07/23 09:58:17;;;;;;;;;;;16.40;99.90;;;;;;5083096;28;20015;-86
2023/07/23 10:00:43;;;;;;;;;;;16.40;99.90;;;;;;5077870;28;19935;-86
2023/07/23 10:03:09;;;;;;;;;;;16.50;99.90;;;;;;5083830;28;19939;-87
2023/07/23 10:05:35;;;;;;;;;;;16.50;99.90;;;;;;5060084;28;19936;-85
2023/07/23 10:08:03;;;;;;;;;;;16.60;99.90;;;;;;5090805;28;19924;-86
2023/07/23 10:10:29;;;;;;;;;;;16.60;99.90;;;;;;5071755;28;19939;-86
2023/07/23 10:12:54;;;;;;;;;;;16.60;99.90;;;;;;5088540;28;20359;-86
2023/07/23 10:15:20;;;;;;;;;;;16.70;99.90;;;;;;5074903;28;19930;-87
2023/07/23 10:17:48;;;;;;;;;;;16.70;99.90;;;;;;5058202;28;19924;-87
2023/07/23 10:20:15;;;;;;;;;;;16.70;99.90;;;;;;5091415;28;19928;-87
2023/07/23 10:22:43;;;;;;;;;;;16.70;99.90;;;;;;5073030;28;20408;-86
2023/07/23 10:25:21;;;;;;;;;;;16.70;99.90;;;;;;5091593;28;19924;-86
2023/07/23 10:27:54;;;;;;;;;;;16.70;99.90;;;;;;5071018;28;19924;-86
2023/07/23 10:30:20;;;;;;;;;;;16.70;99.90;;;;;;5088532;28;19928;-86
2023/07/23 10:32:47;;;;;;;;;;;16.70;99.90;;;;;;5073421;28;19924;-86
2023/07/23 10:35:12;;;;;;;;;;;16.70;99.90;;;;;;5057337;28;19989;-86
2023/07/23 10:37:38;;;;;;;;;;;16.70;99.90;;;;;;5092589;28;20378;-86
2023/07/23 10:40:04;;;;;;;;;;;16.70;99.90;;;;;;5074232;28;19931;-86
2023/07/23 10:42:37;;;;;;;;;;;16.70;99.90;;;;;;5091444;28;19978;-86
2023/07/23 10:45:21;;;;;;;;;;;16.70;99.90;;;;;;5067323;28;20019;-86
2023/07/23 10:47:50;;;;;;;;;;;16.80;99.90;;;;;;5067708;28;20018;-86
2023/07/23 10:50:17;;;;;;;;;;;16.80;99.90;;;;;;5066505;28;19973;-86
2023/07/23 10:52:43;;;;;;;;;;;16.80;99.90;;;;;;5069287;28;20283;-86
2023/07/23 10:55:08;;;;;;;;;;;16.90;99.90;;;;;;5071982;28;19950;-87
2023/07/23 10:57:37;;;;;;;;;;;16.90;99.90;;;;;;5085060;28;19928;-83
2023/07/23 11:00:04;;;;;;;;;;;16.90;99.90;;;;;;5068014;28;20382;-85
2023/07/23 11:02:30;;;;;;;;;;;16.90;99.90;;;;;;5066773;28;19932;-86
2023/07/23 11:04:57;;;;;;;;;;;16.90;99.90;;;;;;5067717;28;19928;-86
2023/07/23 11:07:27;;;;;;;;;;;16.80;99.90;;;;;;5086930;28;20374;-86
2023/07/23 11:09:54;;;;;;;;;;;16.80;99.90;;;;;;5068969;28;20363;-85
2023/07/23 11:12:21;;;;;;;;;;;16.90;99.90;;;;;;5069623;28;20019;-85
2023/07/23 11:14:47;;;;;;;;;;;16.90;99.90;;;;;;5085399;28;20491;-87
2023/07/23 11:17:13;;;;;;;;;;;16.90;99.90;;;;;;5067824;28;19928;-87
2023/07/23 11:19:44;;;;;;;;;;;17.00;99.90;;;;;;5089925;28;20424;-87
2023/07/23 11:22:11;;;;;;;;;;;17.00;99.90;;;;;;5055909;28;19977;-86
2023/07/23 11:24:37;;;;;;;;;;;17.00;99.90;;;;;;5089754;28;19972;-87
2023/07/23 11:27:03;;;;;;;;;;;17.00;99.90;;;;;;5091497;28;19975;-87
2023/07/23 11:29:29;;;;;;;;;;;17.00;99.90;;;;;;5095618;28;20313;-88
2023/07/23 11:31:55;;;;;;;;;;;17.10;99.90;;;;;;5094205;28;19924;-86
2023/07/23 11:34:21;;;;;;;;;;;17.00;99.90;;;;;;5092431;28;19935;-87
2023/07/23 11:36:52;;;;;;;;;;;17.00;99.90;;;;;;5090373;28;19928;-86
2023/07/23 11:39:18;;;;;;;;;;;17.00;99.90;;;;;;5089895;28;19924;-88
2023/07/23 11:41:44;;;;;;;;;;;17.00;99.90;;;;;;5088952;28;20294;-86
2023/07/23 11:44:11;;;;;;;;;;;17.00;99.90;;;;;;5089783;28;19935;-87
2023/07/23 11:46:37;;;;;;;;;;;17.00;99.90;;;;;;5090305;28;19931;-85
2023/07/23 11:49:03;;;;;;;;;;;17.10;99.90;;;;;;5089557;28;20705;-86
2023/07/23 11:51:31;;;;;;;;;;;17.00;99.90;;;;;;5072657;28;20003;-86
2023/07/23 11:54:02;;;;;;;;;;;17.10;99.90;;;;;;5086995;28;19924;-86
2023/07/23 11:56:29;;;;;;;;;;;17.10;99.90;;;;;;5090104;28;20409;-85
2023/07/23 11:58:54;;;;;;;;;;;17.10;99.90;;;;;;5090229;28;20461;-87
2023/07/23 12:01:20;;;;;;;;;;;17.10;99.90;;;;;;5090158;28;20050;-86
2023/07/23 12:03:46;;;;;;;;;;;17.10;99.90;;;;;;5085465;28;19973;-86
2023/07/23 12:06:12;;;;;;;;;;;17.10;99.90;;;;;;5089462;28;20012;-85
2023/07/23 12:08:38;;;;;;;;;;;17.10;99.90;;;;;;5072519;28;19931;-86
2023/07/23 12:11:08;;;;;;;;;;;17.10;99.90;;;;;;5072265;28;19928;-85
2023/07/23 12:13:33;;;;;;;;;;;17.10;99.90;;;;;;5065160;28;19939;-85
2023/07/23 12:15:59;;;;;;;;;;;17.10;99.90;;;;;;5067674;28;19991;-86
2023/07/23 12:18:27;;;;;;;;;;;17.20;99.90;;;;;;5067384;28;19967;-87
2023/07/23 12:20:57;;;;;;;;;;;17.20;99.90;;;;;;5063013;28;20329;-86
2023/07/23 12:23:22;;;;;;;;;;;17.30;99.90;;;;;;5086697;28;19928;-87
2023/07/23 12:25:48;;;;;;;;;;;17.30;99.90;;;;;;5048543;28;19924;-87
2023/07/23 12:28:13;;;;;;;;;;;17.40;99.90;;;;;;5085217;28;19932;-87
2023/07/23 12:30:39;;;;;;;;;;;17.50;99.90;;;;;;5062483;28;20011;-87
2023/07/23 12:33:04;;;;;;;;;;;17.60;99.90;;;;;;5079208;28;19959;-86
2023/07/23 12:35:30;;;;;;;;;;;17.80;99.90;;;;;;5044601;28;19932;-87
2023/07/23 12:37:56;;;;;;;;;;;17.90;99.90;;;;;;5079495;28;19978;-86
2023/07/23 12:40:21;;;;;;;;;;;18.10;99.90;;;;;;5064094;28;19977;-87
2023/07/23 12:42:47;;;;;;;;;;;18.30;99.90;;;;;;5063708;28;20024;-86
2023/07/23 12:45:13;;;;;;;;;;;18.50;99.90;;;;;;5080693;28;19928;-85
2023/07/23 12:47:38;;;;;;;;;;;18.90;99.90;;;;;;5062383;28;19935;-86
2023/07/23 12:50:05;;;;;;;;;;;19.20;99.90;;;;;;5078296;28;19932;-87
2023/07/23 12:52:31;;;;;;;;;;;19.70;99.90;;;;;;5083501;28;19928;-87
2023/07/23 12:54:56;;;;;;;;;;;19.90;99.90;;;;;;5086795;28;19947;-86
2023/07/23 12:57:22;;;;;;;;;;;20.00;99.90;;;;;;5088584;28;19928;-87
2023/07/23 12:59:48;;;;;;;;;;;20.10;99.90;;;;;;5070313;28;20298;-85
2023/07/23 13:02:13;;;;;;;;;;;20.10;99.90;;;;;;5068427;28;19980;-88
2023/07/23 13:04:41;;;;;;;;;;;20.10;99.90;;;;;;5084361;28;19974;-86
2023/07/23 13:07:07;;;;;;;;;;;20.10;99.90;;;;;;5083659;28;19928;-86
2023/07/23 13:09:32;;;;;;;;;;;20.10;99.90;;;;;;5063492;28;19928;-87
2023/07/23 13:11:58;;;;;;;;;;;20.30;99.90;;;;;;5084781;28;19976;-88
2023/07/23 13:14:23;;;;;;;;;;;20.30;99.90;;;;;;5084648;28;21496;-87
2023/07/23 13:16:49;;;;;;;;;;;20.20;99.90;;;;;;5086597;28;19964;-86
2023/07/23 13:19:15;;;;;;;;;;;20.30;99.90;;;;;;5080597;28;19943;-87
2023/07/23 13:21:40;;;;;;;;;;;20.40;99.90;;;;;;5086056;28;19990;-86
2023/07/23 13:24:06;;;;;;;;;;;20.70;99.90;;;;;;5089660;28;20077;-87
2023/07/23 13:26:31;;;;;;;;;;;21.00;99.90;;;;;;5073149;28;20047;-87
2023/07/23 13:28:57;;;;;;;;;;;21.20;99.90;;;;;;5091171;28;19928;-86
2023/07/23 13:31:23;;;;;;;;;;;21.40;99.90;;;;;;5050412;28;19924;-85
2023/07/23 13:33:50;;;;;;;;;;;21.50;99.90;;;;;;5082443;28;19928;-85
2023/07/23 13:36:16;;;;;;;;;;;21.50;99.90;;;;;;5068922;28;19932;-87
2023/07/23 13:38:41;;;;;;;;;;;21.40;99.90;;;;;;5071796;28;19924;-85
2023/07/23 13:41:07;;;;;;;;;;;21.30;99.90;;;;;;5065134;28;19985;-87
2023/07/23 13:43:33;;;;;;;;;;;21.20;99.90;;;;;;5085008;28;20027;-87
2023/07/23 13:45:58;;;;;;;;;;;20.90;99.90;;;;;;5083655;28;19924;-87
2023/07/23 13:48:24;;;;;;;;;;;20.70;99.90;;;;;;5063828;28;19974;-88
2023/07/23 13:50:49;;;;;;;;;;;20.60;99.90;;;;;;5083096;28;21012;-88
2023/07/23 13:53:15;;;;;;;;;;;20.60;99.90;;;;;;5067003;28;19963;-88
2023/07/23 13:55:40;;;;;;;;;;;20.60;99.90;;;;;;5082589;28;19924;-86
2023/07/23 13:58:06;;;;;;;;;;;20.70;99.90;;;;;;5062491;28;19928;-88
2023/07/23 14:00:32;;;;;;;;;;;20.90;99.90;;;;;;5089561;28;19928;-87
2023/07/23 14:02:58;;;;;;;;;;;21.10;99.90;;;;;;5083048;28;19932;-87
2023/07/23 14:05:28;;;;;;;;;;;21.20;99.90;;;;;;5081813;28;19928;-87
2023/07/23 14:07:54;;;;;;;;;;;21.20;99.90;;;;;;5066041;28;20277;-87
2023/07/23 14:10:20;;;;;;;;;;;21.10;99.90;;;;;;5066184;28;19928;-87